Panagia — SVA5679 — position and weather

sailwx.info

Track history (hours):
 
Tides and Currents Weather Stations Pressure Air Temp Water Temp Dewpoint Dewpoint Depression Visibility Wind Speed Wind Dir Waves Ship Positions

Panagia

Last reported at 2017-Nov-19 10:25 UTC. Time now 2017-Nov-22 02:02 UTC.
Position N 40°26' E 024°03'.

Length 24 m; draft 2 m.

Type: Ship. MMSI: 239785700.

Date/timePositionNaut miles runAvg speedWind from/ knotsBaromVisibWave heightAir tempDewpointWater temp
2017-Nov-19 10:25N 40°26' E 024°03'613.0
2017-Nov-19 09:57N 40°22' E 024°09'4 8.6
2017-Nov-19 09:28N 40°19' E 024°13'0 0.0
2017-Nov-19 08:13N 40°19' E 024°13'0 0.0
2017-Nov-19 07:57N 40°19' E 024°13'  
2017-Nov-14 09:58N 40°23' E 024°05'715.4
2017-Nov-14 09:30N 40°19' E 024°12'5 9.5
2017-Nov-14 09:00N 40°16' E 024°17'2 3.0
2017-Nov-14 08:30N 40°15' E 024°17'510.8
2017-Nov-14 08:00N 40°19' E 024°13'12 0.3
2017-Nov-12 10:23N 40°27' E 024°01'715.4
2017-Nov-12 09:55N 40°22' E 024°07'512.0
2017-Nov-12 09:30N 40°19' E 024°13'0 0.0
2017-Nov-12 07:59N 40°19' E 024°13'8 0.4
2017-Nov-11 10:15N 40°24' E 024°04'413.3
2017-Nov-11 09:56N 40°22' E 024°08'410.2
2017-Nov-11 09:30N 40°19' E 024°13'815.3
2017-Nov-11 09:00N 40°14' E 024°20'2 4.6
2017-Nov-11 08:30N 40°15' E 024°17'510.9
2017-Nov-11 08:00N 40°19' E 024°13'  
Track history (hours):
 
Tides and Currents Weather Stations Pressure Air Temp Water Temp Dewpoint Dewpoint Depression Visibility Wind Speed Wind Dir Waves Ship Positions

Panagia

Last reported at 2017-Nov-19 10:25 UTC. Time now 2017-Nov-22 02:02 UTC.
Position N 40°26' E 024°03'.

Length 24 m; draft 2 m.

Type: Ship. MMSI: 239785700.

Date/timePositionNaut miles runAvg speedWind from/ knotsBaromVisibWave heightAir tempDewpointWater temp
2017-Nov-19 10:25N 40°26' E 024°03'613.0
2017-Nov-19 09:57N 40°22' E 024°09'4 8.6
2017-Nov-19 09:28N 40°19' E 024°13'0 0.0
2017-Nov-19 08:13N 40°19' E 024°13'0 0.0
2017-Nov-19 07:57N 40°19' E 024°13'  
2017-Nov-14 09:58N 40°23' E 024°05'715.4
2017-Nov-14 09:30N 40°19' E 024°12'5 9.5
2017-Nov-14 09:00N 40°16' E 024°17'2 3.0
2017-Nov-14 08:30N 40°15' E 024°17'510.8
2017-Nov-14 08:00N 40°19' E 024°13'12 0.3
2017-Nov-12 10:23N 40°27' E 024°01'715.4
2017-Nov-12 09:55N 40°22' E 024°07'512.0
2017-Nov-12 09:30N 40°19' E 024°13'0 0.0
2017-Nov-12 07:59N 40°19' E 024°13'8 0.4
2017-Nov-11 10:15N 40°24' E 024°04'413.3
2017-Nov-11 09:56N 40°22' E 024°08'410.2
2017-Nov-11 09:30N 40°19' E 024°13'815.3
2017-Nov-11 09:00N 40°14' E 024°20'2 4.6
2017-Nov-11 08:30N 40°15' E 024°17'510.9
2017-Nov-11 08:00N 40°19' E 024°13'  

Dump ship's entire track history